PAHP

Details ICAO PAHP (HPB)
Name HOOPER BAY
Region USA (Alaska)
Timezone America/Nome (UTC-9.0)
Plans Departing 3
Arriving 1
Stats Elevation 7 ft / 2 m (AMSL)
Location 61.523872° -166.146625°
Runways 1
Magnetic Variation 9.566° E
Sunrise 2017-12-15 20:19:27 UTC / 2017-12-15 11:19:27 Local
Sunset 2017-12-16 01:43:15 UTC / 2017-12-15 16:43:15 Local
Advertisement - Login to hide

Runways

ID Width Length Bearing (true) Bearing (mag) Surface Threshold Offset Overrun Length
13 75 ft / 23 m 3,292 ft / 1,003 m 148.68° 139.11° Asphalt 0 ft / 0 m 0 ft / 0 m
31 75 ft / 23 m 3,292 ft / 1,003 m 328.69° 319.12° Asphalt 0 ft / 0 m 0 ft / 0 m

Map

Weather


0- 5 10 15 20 25 30 35+ Temperature / ° C

Clouds and Precipitation
Forecast for 2017-12-16 12:00 UTC. Updated 11 minutes ago

Ground ~20,000 ft ~40,000 ft Winds

METAR

PAHP 160933Z AUTO 09019G26KT 3SM -SN BR OVC005 M01/M01 A2868 RMK AO2 PK WND 09026/0926 UPE22SNB22 P0000 FZRANO

TAF

Not found

Frequencies

Recorded 135.10 MHz AWOS 3
Unicom 123.00 MHz CTAF
Warning: Do not use this data for real-world aviation or navigation. No guarantee of current accuracy is given.